createdAt,value
2023-01-21T00:00:56.334Z,-0.90
2023-01-21T00:03:23.085Z,-0.90
2023-01-21T00:05:50.207Z,-0.80
2023-01-21T00:08:16.876Z,-0.80
2023-01-21T00:10:43.624Z,-0.80
2023-01-21T00:13:10.684Z,-0.80
2023-01-21T00:15:37.391Z,-0.70
2023-01-21T00:18:04.119Z,-0.60
2023-01-21T00:20:30.954Z,-0.70
2023-01-21T00:22:57.596Z,-0.70
2023-01-21T00:25:24.332Z,-0.70
2023-01-21T00:27:51.362Z,-0.70
2023-01-21T00:30:18.625Z,-0.70
2023-01-21T00:32:45.591Z,-0.70
2023-01-21T00:35:12.396Z,-0.60
2023-01-21T00:37:39.079Z,-0.70
2023-01-21T00:40:07.136Z,-0.70
2023-01-21T00:42:33.863Z,-0.70
2023-01-21T00:45:00.514Z,-0.70
2023-01-21T00:47:28.112Z,-0.70
2023-01-21T00:49:54.800Z,-0.60
2023-01-21T00:52:21.590Z,-0.60
2023-01-21T00:54:48.313Z,-0.60
2023-01-21T00:57:15.031Z,-0.60
2023-01-21T00:59:42.090Z,-0.60
2023-01-21T01:02:09.739Z,-0.60
2023-01-21T01:04:36.790Z,-0.60
2023-01-21T01:07:04.041Z,-0.50
2023-01-21T01:09:30.907Z,-0.50
2023-01-21T01:11:57.589Z,-0.40
2023-01-21T01:14:24.921Z,-0.50
2023-01-21T01:16:51.627Z,-0.50
2023-01-21T01:19:18.331Z,-0.50
2023-01-21T01:21:45.364Z,-0.50
2023-01-21T01:24:12.085Z,-0.40
2023-01-21T01:26:41.848Z,-0.50
2023-01-21T01:29:12.557Z,-0.40
2023-01-21T01:31:39.611Z,-0.40
2023-01-21T01:34:06.733Z,-0.40
2023-01-21T01:36:33.582Z,-0.40
2023-01-21T01:39:00.329Z,-0.40
2023-01-21T01:41:29.883Z,-0.40
2023-01-21T01:44:01.005Z,-0.40
2023-01-21T01:46:30.734Z,-0.30
2023-01-21T01:49:18.382Z,-0.20
2023-01-21T01:51:50.986Z,-0.20
2023-01-21T01:54:25.150Z,-0.20
2023-01-21T01:56:54.890Z,-0.20
2023-01-21T01:59:21.795Z,-0.20
2023-01-21T02:01:49.045Z,-0.10
2023-01-21T02:04:21.149Z,-0.10
2023-01-21T02:06:50.127Z,-0.10
2023-01-21T02:09:16.798Z,-0.10
2023-01-21T02:11:43.589Z,-0.10
2023-01-21T02:14:10.379Z,-0.10
2023-01-21T02:16:52.099Z,-0.10
2023-01-21T02:19:46.896Z,-0.10
2023-01-21T02:22:19.593Z,-0.20
2023-01-21T02:25:09.021Z,-0.10
2023-01-21T02:27:35.725Z,-0.20
2023-01-21T02:30:22.827Z,-0.10
2023-01-21T02:33:11.121Z,-0.10
2023-01-21T02:35:53.345Z,-0.10
2023-01-21T02:38:31.240Z,-0.20
2023-01-21T02:41:28.071Z,-0.10
2023-01-21T02:44:14.842Z,-0.20
2023-01-21T02:46:52.825Z,-0.10
2023-01-21T02:49:27.337Z,-0.10
2023-01-21T02:51:54.019Z,-0.10
2023-01-21T02:54:38.943Z,-0.10
2023-01-21T02:57:19.749Z,-0.10
2023-01-21T02:59:49.811Z,-0.10
2023-01-21T03:02:25.607Z,-0.10
2023-01-21T03:05:23.559Z,-0.10
2023-01-21T03:08:02.592Z,-0.10
2023-01-21T03:10:39.153Z,0.00
2023-01-21T03:13:13.192Z,0.00
2023-01-21T03:16:06.048Z,-0.10
2023-01-21T03:18:43.344Z,-0.10
2023-01-21T03:21:18.301Z,-0.10
2023-01-21T03:23:49.552Z,-0.10
2023-01-21T03:26:20.710Z,-0.10
2023-01-21T03:28:52.347Z,0.00
2023-01-21T03:31:28.032Z,-0.10
2023-01-21T03:34:00.177Z,-0.10
2023-01-21T03:36:36.081Z,-0.10
2023-01-21T03:39:13.375Z,-0.10
2023-01-21T03:41:40.546Z,-0.10
2023-01-21T03:44:07.679Z,-0.10
2023-01-21T03:47:28.722Z,-0.10
2023-01-21T03:50:04.585Z,-0.10
2023-01-21T03:52:31.759Z,-0.10
2023-01-21T03:54:58.584Z,0.00
2023-01-21T03:57:25.418Z,0.00
2023-01-21T03:59:52.777Z,0.00
2023-01-21T04:02:20.440Z,0.00
2023-01-21T04:04:47.690Z,0.00
2023-01-21T04:07:17.215Z,0.00
2023-01-21T04:09:43.928Z,0.00
2023-01-21T04:12:11.399Z,-0.10
2023-01-21T04:14:38.390Z,-0.10
2023-01-21T04:17:05.563Z,-0.10
2023-01-21T04:19:32.653Z,0.00
2023-01-21T04:21:59.528Z,0.00
2023-01-21T04:24:26.383Z,-0.10
2023-01-21T04:26:53.395Z,-0.10
2023-01-21T04:29:20.718Z,0.00
2023-01-21T04:31:48.252Z,0.00
2023-01-21T04:34:16.870Z,0.00
2023-01-21T04:36:43.723Z,-0.10
2023-01-21T04:39:11.334Z,0.00
2023-01-21T04:41:38.199Z,0.00
2023-01-21T04:44:05.020Z,-0.10
2023-01-21T04:46:31.798Z,0.00
2023-01-21T04:48:58.660Z,0.00
2023-01-21T04:51:25.374Z,0.00
2023-01-21T04:53:52.039Z,0.00
2023-01-21T04:56:18.821Z,0.00
2023-01-21T04:58:45.507Z,0.00
2023-01-21T05:01:12.341Z,0.00
2023-01-21T05:03:39.051Z,0.00
2023-01-21T05:06:05.851Z,0.00
2023-01-21T05:08:32.548Z,0.10
2023-01-21T05:10:59.212Z,0.10
2023-01-21T05:13:25.881Z,0.10
2023-01-21T05:15:52.815Z,0.10
2023-01-21T05:18:19.581Z,0.10
2023-01-21T05:20:46.278Z,0.10
2023-01-21T05:23:13.029Z,0.10
2023-01-21T05:25:39.833Z,0.20
2023-01-21T05:28:06.544Z,0.30
2023-01-21T05:30:33.251Z,0.30
2023-01-21T05:33:00.014Z,0.30
2023-01-21T05:35:26.808Z,0.40
2023-01-21T05:37:53.496Z,0.50
2023-01-21T05:40:20.488Z,0.50
2023-01-21T05:42:47.753Z,0.40
2023-01-21T05:45:14.484Z,0.50
2023-01-21T05:47:41.654Z,0.50
2023-01-21T05:50:09.466Z,0.60
2023-01-21T05:52:36.436Z,0.50
2023-01-21T05:55:03.788Z,0.60
2023-01-21T05:57:31.280Z,0.60
2023-01-21T05:59:58.629Z,0.50
2023-01-21T06:02:26.078Z,0.50
2023-01-21T06:04:52.897Z,0.50
2023-01-21T06:07:19.544Z,0.50
2023-01-21T06:09:46.404Z,0.60
2023-01-21T06:12:13.095Z,0.50
2023-01-21T06:14:39.838Z,0.50
2023-01-21T06:17:06.638Z,0.50
2023-01-21T06:19:33.352Z,0.50
2023-01-21T06:22:00.047Z,0.60
2023-01-21T06:24:26.801Z,0.60
2023-01-21T06:26:53.431Z,0.60
2023-01-21T06:29:20.107Z,0.60
2023-01-21T06:31:46.932Z,0.60
2023-01-21T06:34:13.931Z,0.60
2023-01-21T06:36:42.601Z,0.60
2023-01-21T06:39:10.757Z,0.60
2023-01-21T06:41:37.692Z,0.60
2023-01-21T06:44:05.129Z,0.50
2023-01-21T06:46:31.871Z,0.60
2023-01-21T06:48:58.610Z,0.50
2023-01-21T06:51:25.470Z,0.50
2023-01-21T06:53:53.066Z,0.40
2023-01-21T06:56:21.302Z,0.40
2023-01-21T06:58:48.132Z,0.40
2023-01-21T07:01:14.925Z,0.30
2023-01-21T07:03:41.732Z,0.30
2023-01-21T07:06:08.437Z,0.30
2023-01-21T07:08:35.256Z,0.30
2023-01-21T07:11:02.387Z,0.20
2023-01-21T07:13:29.046Z,0.20
2023-01-21T07:16:02.712Z,0.30
2023-01-21T07:18:30.278Z,0.20
2023-01-21T07:20:57.655Z,0.20
2023-01-21T07:23:24.549Z,0.10
2023-01-21T07:25:51.284Z,0.20
2023-01-21T07:28:18.092Z,0.20
2023-01-21T07:30:44.847Z,0.20
2023-01-21T07:33:11.647Z,0.20
2023-01-21T07:35:38.486Z,0.20
2023-01-21T07:38:05.316Z,0.20
2023-01-21T07:40:32.020Z,0.30
2023-01-21T07:42:58.712Z,0.30
2023-01-21T07:45:25.411Z,0.30
2023-01-21T07:47:52.039Z,0.30
2023-01-21T07:50:18.907Z,0.40
2023-01-21T07:52:45.610Z,0.30
2023-01-21T07:55:12.825Z,0.30
2023-01-21T07:57:39.576Z,0.40
2023-01-21T08:00:06.995Z,0.40
2023-01-21T08:02:33.933Z,0.40
2023-01-21T08:05:00.665Z,0.50
2023-01-21T08:07:27.497Z,0.40
2023-01-21T08:09:54.260Z,0.50
2023-01-21T08:12:21.029Z,0.50
2023-01-21T08:14:47.697Z,0.60
2023-01-21T08:17:14.552Z,0.60
2023-01-21T08:19:41.402Z,0.60
2023-01-21T08:22:08.053Z,0.60
2023-01-21T08:24:34.745Z,0.70
2023-01-21T08:27:01.594Z,0.70
2023-01-21T08:29:28.476Z,0.70
2023-01-21T08:31:55.249Z,0.70
2023-01-21T08:34:21.993Z,0.80
2023-01-21T08:36:48.653Z,0.80
2023-01-21T08:39:16.396Z,0.80
2023-01-21T08:41:44.437Z,0.90
2023-01-21T08:44:11.546Z,1.00
2023-01-21T08:46:38.260Z,1.00
2023-01-21T08:49:05.119Z,1.00
2023-01-21T08:51:31.925Z,1.00
2023-01-21T08:53:58.668Z,1.00
2023-01-21T08:56:25.536Z,1.00
2023-01-21T08:58:56.948Z,1.00
2023-01-21T09:01:25.172Z,1.00
2023-01-21T09:04:00.163Z,1.00
2023-01-21T09:06:29.721Z,1.10
2023-01-21T09:08:56.805Z,1.10
2023-01-21T09:11:23.984Z,1.20
2023-01-21T09:13:50.719Z,1.30
2023-01-21T09:16:22.743Z,1.30
2023-01-21T09:18:49.809Z,1.30
2023-01-21T09:21:16.931Z,1.30
2023-01-21T09:23:44.450Z,1.30
2023-01-21T09:26:20.148Z,1.30
2023-01-21T09:28:58.787Z,1.30
2023-01-21T09:31:27.411Z,1.40
2023-01-21T09:34:00.793Z,1.50
2023-01-21T09:36:31.247Z,1.50
2023-01-21T09:38:58.731Z,1.50
2023-01-21T09:41:33.652Z,1.60
2023-01-21T09:44:37.838Z,1.60
2023-01-21T09:47:10.397Z,1.70
2023-01-21T09:49:38.963Z,1.70
2023-01-21T09:52:22.591Z,1.70
2023-01-21T09:54:49.482Z,1.80
2023-01-21T09:57:41.037Z,1.80
2023-01-21T10:00:25.950Z,1.80
2023-01-21T10:03:03.056Z,1.90
2023-01-21T10:05:50.705Z,1.90
2023-01-21T10:08:35.446Z,1.90
2023-01-21T10:11:35.280Z,2.00
2023-01-21T10:14:27.569Z,2.10
2023-01-21T10:17:15.742Z,2.20
2023-01-21T10:19:48.243Z,2.20
2023-01-21T10:22:24.238Z,2.40
2023-01-21T10:25:00.213Z,2.30
2023-01-21T10:27:28.484Z,2.40
2023-01-21T10:30:02.231Z,2.40
2023-01-21T10:32:28.950Z,2.40
2023-01-21T10:34:57.667Z,2.50
2023-01-21T10:37:45.906Z,2.50
2023-01-21T10:40:42.713Z,2.50
2023-01-21T10:43:14.882Z,2.50
2023-01-21T10:45:50.560Z,2.60
2023-01-21T10:48:32.101Z,2.60
2023-01-21T10:51:20.944Z,2.60
2023-01-21T10:54:16.938Z,2.70
2023-01-21T10:56:52.530Z,2.60
2023-01-21T10:59:24.044Z,2.70
2023-01-21T11:01:56.399Z,2.70
2023-01-21T11:04:25.744Z,2.80
2023-01-21T11:07:04.730Z,2.80
2023-01-21T11:09:57.646Z,2.80
2023-01-21T11:12:24.988Z,2.80
2023-01-21T11:14:57.804Z,2.90
2023-01-21T11:17:40.263Z,2.80
2023-01-21T11:20:23.150Z,2.80
2023-01-21T11:22:50.555Z,2.80
2023-01-21T11:25:41.825Z,2.90
2023-01-21T11:28:27.470Z,2.80
2023-01-21T11:31:14.508Z,2.80
2023-01-21T11:33:43.457Z,2.80
2023-01-21T11:36:19.175Z,2.90
2023-01-21T11:38:59.171Z,2.90
2023-01-21T11:41:26.079Z,2.90
2023-01-21T11:44:16.810Z,2.90
2023-01-21T11:46:43.945Z,2.90
2023-01-21T11:49:10.602Z,2.90
2023-01-21T11:51:41.662Z,3.00
2023-01-21T11:54:11.836Z,3.00
2023-01-21T11:56:39.013Z,2.90
2023-01-21T11:59:38.879Z,3.00
2023-01-21T12:02:20.756Z,3.00
2023-01-21T12:05:13.611Z,3.00
2023-01-21T12:07:42.381Z,3.00
2023-01-21T12:10:12.015Z,3.10
2023-01-21T12:13:03.372Z,3.10
2023-01-21T12:15:48.840Z,3.10
2023-01-21T12:18:44.458Z,3.10
2023-01-21T12:21:17.801Z,3.10
2023-01-21T12:24:12.828Z,3.10
2023-01-21T12:26:45.625Z,3.10
2023-01-21T12:29:24.119Z,3.10
2023-01-21T12:32:01.631Z,3.10
2023-01-21T12:34:44.474Z,3.10
2023-01-21T12:37:19.950Z,3.10
2023-01-21T12:39:50.152Z,3.00
2023-01-21T12:42:29.453Z,3.00
2023-01-21T12:45:14.644Z,3.00
2023-01-21T12:47:50.441Z,3.00
2023-01-21T12:50:39.768Z,3.00
2023-01-21T12:53:09.454Z,3.00
2023-01-21T12:55:54.893Z,3.10
2023-01-21T12:58:25.123Z,3.00
2023-01-21T13:00:53.977Z,3.00
2023-01-21T13:03:37.680Z,3.00
2023-01-21T13:06:18.053Z,3.00
2023-01-21T13:09:10.461Z,3.00
2023-01-21T13:12:03.351Z,3.10
2023-01-21T13:15:11.769Z,3.00
2023-01-21T13:17:42.694Z,3.00
2023-01-21T13:20:20.509Z,3.10
2023-01-21T13:23:09.066Z,3.10
2023-01-21T13:25:44.988Z,3.10
2023-01-21T13:28:39.474Z,3.10
2023-01-21T13:31:29.722Z,3.10
2023-01-21T13:34:39.478Z,3.20
2023-01-21T13:37:13.593Z,3.10
2023-01-21T13:39:58.788Z,3.10
2023-01-21T13:42:37.045Z,3.10
2023-01-21T13:45:21.810Z,3.10
2023-01-21T13:48:04.661Z,3.20
2023-01-21T13:51:12.886Z,3.20
2023-01-21T13:53:58.170Z,3.10
2023-01-21T13:56:41.697Z,3.10
2023-01-21T13:59:29.703Z,3.20
2023-01-21T14:02:14.555Z,3.10
2023-01-21T14:04:50.039Z,3.10
2023-01-21T14:07:21.727Z,3.10
2023-01-21T14:10:08.808Z,3.10
2023-01-21T14:13:09.051Z,3.10
2023-01-21T14:15:41.561Z,3.10
2023-01-21T14:18:36.074Z,3.10
2023-01-21T14:21:11.702Z,3.10
2023-01-21T14:23:56.573Z,3.00
2023-01-21T14:26:41.310Z,3.10
2023-01-21T14:29:19.925Z,3.00
2023-01-21T14:32:04.897Z,2.90
2023-01-21T14:35:24.456Z,2.80
2023-01-21T14:37:55.579Z,2.70
2023-01-21T14:40:29.301Z,2.70
2023-01-21T14:42:56.222Z,2.60
2023-01-21T14:45:44.061Z,2.50
2023-01-21T14:48:38.267Z,2.40
2023-01-21T14:51:07.911Z,2.40
2023-01-21T14:53:47.951Z,2.30
2023-01-21T14:56:17.622Z,2.20
2023-01-21T14:58:50.663Z,2.20
2023-01-21T15:01:37.634Z,2.10
2023-01-21T15:04:21.880Z,2.00
2023-01-21T15:06:51.808Z,2.00
2023-01-21T15:09:24.830Z,1.90
2023-01-21T15:11:56.605Z,1.90
2023-01-21T15:14:27.913Z,1.90
2023-01-21T15:16:54.717Z,1.70
2023-01-21T15:19:33.662Z,1.70
2023-01-21T15:22:00.369Z,1.70
2023-01-21T15:24:35.542Z,1.70
2023-01-21T15:27:21.564Z,1.60
2023-01-21T15:29:54.318Z,1.60
2023-01-21T15:32:29.511Z,1.60
2023-01-21T15:35:41.726Z,1.50
2023-01-21T15:38:08.446Z,1.50
2023-01-21T15:40:43.098Z,1.50
2023-01-21T15:43:32.293Z,1.60
2023-01-21T15:46:02.648Z,1.50
2023-01-21T15:48:54.795Z,1.50
2023-01-21T15:51:50.903Z,1.50
2023-01-21T15:54:36.205Z,1.50
2023-01-21T15:57:24.129Z,1.50
2023-01-21T16:00:22.072Z,1.50
2023-01-21T16:02:52.466Z,1.40
2023-01-21T16:05:41.972Z,1.40
2023-01-21T16:08:51.807Z,1.40
2023-01-21T16:11:21.174Z,1.40
2023-01-21T16:13:57.275Z,1.40
2023-01-21T16:16:38.851Z,1.40
2023-01-21T16:19:09.758Z,1.40
2023-01-21T16:21:40.382Z,1.50
2023-01-21T16:24:25.055Z,1.50
2023-01-21T16:26:52.344Z,1.50
2023-01-21T16:29:19.141Z,1.50
2023-01-21T16:32:00.773Z,1.50
2023-01-21T16:34:36.392Z,1.50
2023-01-21T16:37:06.136Z,1.50
2023-01-21T16:39:33.043Z,1.40
2023-01-21T16:42:05.556Z,1.40
2023-01-21T16:44:33.677Z,1.40
2023-01-21T16:47:01.038Z,1.40
2023-01-21T16:49:28.000Z,1.40
2023-01-21T16:51:58.631Z,1.30
2023-01-21T16:54:32.701Z,1.30
2023-01-21T16:56:59.385Z,1.30
2023-01-21T16:59:29.506Z,1.30
2023-01-21T17:01:58.432Z,1.30
2023-01-21T17:04:25.413Z,1.30
2023-01-21T17:06:53.864Z,1.40
2023-01-21T17:09:26.413Z,1.40
2023-01-21T17:11:54.692Z,1.40
2023-01-21T17:14:28.358Z,1.40
2023-01-21T17:16:58.655Z,1.50
2023-01-21T17:19:28.885Z,1.50
2023-01-21T17:21:59.939Z,1.50
2023-01-21T17:24:43.719Z,1.40
2023-01-21T17:27:15.028Z,1.50
2023-01-21T17:29:44.016Z,1.50
2023-01-21T17:32:27.939Z,1.50
2023-01-21T17:35:16.947Z,1.40
2023-01-21T17:38:01.950Z,1.40
2023-01-21T17:40:45.480Z,1.40
2023-01-21T17:43:24.312Z,1.40
2023-01-21T17:45:53.156Z,1.40
2023-01-21T17:48:26.510Z,1.40
2023-01-21T17:50:54.062Z,1.40
2023-01-21T17:53:31.044Z,1.30
2023-01-21T17:55:59.606Z,1.30
2023-01-21T17:58:32.134Z,1.30
2023-01-21T18:01:02.521Z,1.30
2023-01-21T18:03:29.276Z,1.30
2023-01-21T18:05:56.782Z,1.40
2023-01-21T18:08:24.546Z,1.30
2023-01-21T18:10:51.353Z,1.30
2023-01-21T18:13:21.507Z,1.30
2023-01-21T18:15:51.487Z,1.40
2023-01-21T18:18:21.336Z,1.40
2023-01-21T18:20:48.256Z,1.30
2023-01-21T18:23:17.995Z,1.40
2023-01-21T18:25:49.313Z,1.30
2023-01-21T18:28:22.606Z,1.30
2023-01-21T18:30:50.567Z,1.40
2023-01-21T18:33:17.735Z,1.30
2023-01-21T18:35:46.578Z,1.40
2023-01-21T18:38:21.356Z,1.30
2023-01-21T18:40:48.560Z,1.40
2023-01-21T18:43:15.201Z,1.40
2023-01-21T18:45:41.895Z,1.40
2023-01-21T18:48:14.712Z,1.30
2023-01-21T18:50:41.513Z,1.30
2023-01-21T18:53:09.154Z,1.30
2023-01-21T18:55:36.112Z,1.40
2023-01-21T18:58:04.577Z,1.30
2023-01-21T19:00:33.736Z,1.30
2023-01-21T19:03:01.584Z,1.30
2023-01-21T19:05:34.069Z,1.30
2023-01-21T19:08:07.534Z,1.40
2023-01-21T19:10:34.173Z,1.40
2023-01-21T19:13:00.901Z,1.40
2023-01-21T19:15:28.633Z,1.40
2023-01-21T19:17:56.119Z,1.40
2023-01-21T19:20:25.809Z,1.40
2023-01-21T19:22:53.490Z,1.50
2023-01-21T19:25:22.975Z,1.50
2023-01-21T19:27:51.417Z,1.50
2023-01-21T19:30:30.903Z,1.50
2023-01-21T19:33:00.717Z,1.50
2023-01-21T19:35:30.786Z,1.50
2023-01-21T19:37:57.834Z,1.60
2023-01-21T19:40:26.894Z,1.60
2023-01-21T19:42:53.819Z,1.60
2023-01-21T19:45:20.930Z,1.50
2023-01-21T19:47:49.461Z,1.50
2023-01-21T19:50:21.707Z,1.50
2023-01-21T19:52:50.864Z,1.50
2023-01-21T19:55:25.541Z,1.50
2023-01-21T19:57:58.299Z,1.60
2023-01-21T20:00:31.475Z,1.60
2023-01-21T20:02:58.279Z,1.60
2023-01-21T20:05:27.827Z,1.60
2023-01-21T20:07:54.951Z,1.50
2023-01-21T20:10:27.034Z,1.60
2023-01-21T20:12:54.412Z,1.60
2023-01-21T20:15:29.865Z,1.60
2023-01-21T20:17:59.429Z,1.60
2023-01-21T20:20:28.864Z,1.60
2023-01-21T20:22:55.959Z,1.60
2023-01-21T20:25:25.184Z,1.60
2023-01-21T20:27:55.423Z,1.50
2023-01-21T20:30:25.265Z,1.50
2023-01-21T20:32:52.109Z,1.50
2023-01-21T20:35:20.208Z,1.60
2023-01-21T20:37:49.547Z,1.60
2023-01-21T20:40:20.690Z,1.60
2023-01-21T20:42:48.173Z,1.60
2023-01-21T20:45:17.091Z,1.70
2023-01-21T20:47:50.106Z,1.70
2023-01-21T20:50:18.608Z,1.70
2023-01-21T20:52:45.823Z,1.70
2023-01-21T20:55:13.272Z,1.70
2023-01-21T20:57:41.212Z,1.70
2023-01-21T21:00:16.743Z,1.60
2023-01-21T21:02:43.567Z,1.70
2023-01-21T21:05:10.724Z,1.70
2023-01-21T21:07:37.379Z,1.70
2023-01-21T21:10:05.380Z,1.70
2023-01-21T21:12:32.191Z,1.70
2023-01-21T21:14:58.835Z,1.70
2023-01-21T21:17:25.475Z,1.70
2023-01-21T21:19:52.214Z,1.70
2023-01-21T21:22:18.937Z,1.70
2023-01-21T21:24:45.585Z,1.70
2023-01-21T21:27:12.295Z,1.70
2023-01-21T21:29:39.037Z,1.70
2023-01-21T21:32:06.858Z,1.70
2023-01-21T21:34:34.423Z,1.70
2023-01-21T21:37:01.200Z,1.70
2023-01-21T21:39:27.888Z,1.70
2023-01-21T21:42:15.814Z,1.70
2023-01-21T21:44:43.491Z,1.60
2023-01-21T21:47:29.195Z,1.60
2023-01-21T21:49:55.909Z,1.60
2023-01-21T21:52:24.089Z,1.60
2023-01-21T21:54:51.153Z,1.60
2023-01-21T21:57:17.862Z,1.60
2023-01-21T21:59:44.537Z,1.60
2023-01-21T22:02:12.017Z,1.60
2023-01-21T22:04:39.088Z,1.60
2023-01-21T22:07:05.850Z,1.60
2023-01-21T22:09:34.015Z,1.60
2023-01-21T22:12:01.284Z,1.60
2023-01-21T22:14:27.981Z,1.60
2023-01-21T22:16:54.747Z,1.60
2023-01-21T22:19:21.570Z,1.60
2023-01-21T22:21:48.293Z,1.60
2023-01-21T22:24:15.646Z,1.60
2023-01-21T22:26:42.316Z,1.60
2023-01-21T22:29:09.190Z,1.50
2023-01-21T22:31:36.066Z,1.60
2023-01-21T22:34:02.945Z,1.60
2023-01-21T22:36:30.699Z,1.60
2023-01-21T22:38:57.994Z,1.70
2023-01-21T22:41:25.861Z,1.70
2023-01-21T22:43:53.820Z,1.60
2023-01-21T22:46:23.726Z,1.60
2023-01-21T22:48:51.319Z,1.60
2023-01-21T22:51:19.516Z,1.60
2023-01-21T22:53:46.313Z,1.60
2023-01-21T22:56:14.948Z,1.70
2023-01-21T22:58:42.091Z,1.60
2023-01-21T23:01:19.503Z,1.60
2023-01-21T23:03:46.220Z,1.60
2023-01-21T23:06:13.008Z,1.60
2023-01-21T23:08:39.699Z,1.60
2023-01-21T23:11:08.179Z,1.60
2023-01-21T23:13:35.239Z,1.60
2023-01-21T23:16:05.501Z,1.60
2023-01-21T23:18:32.239Z,1.60
2023-01-21T23:20:59.051Z,1.70
2023-01-21T23:23:25.730Z,1.60
2023-01-21T23:25:52.469Z,1.60
2023-01-21T23:28:19.320Z,1.70
2023-01-21T23:30:46.511Z,1.70
2023-01-21T23:33:13.473Z,1.70
2023-01-21T23:35:40.152Z,1.70
2023-01-21T23:38:06.894Z,1.70
2023-01-21T23:40:33.581Z,1.70
2023-01-21T23:43:00.249Z,1.70
2023-01-21T23:45:27.100Z,1.70
2023-01-21T23:47:54.685Z,1.60
2023-01-21T23:50:21.397Z,1.60
2023-01-21T23:52:48.078Z,1.60
2023-01-21T23:55:14.756Z,1.60
2023-01-21T23:57:41.563Z,1.60
